Time;durP1;ratioP1;P1;durP2;ratioP2;P2;SDS_P1;SDS_P2;PMS_P1;PMS_P2;Temp;Humidity;BMP_temperature;BMP_pressure;BME280_temperature;BME280_humidity;BME280_pressure;Samples;Min_cycle;Max_cycle;Signal;HPM_P1;HPM_P2
2023/09/28 00:01:18;;;;;;;8.65;3.88;;;20.30;72.30;;;;;;5011232;28;20037;-65
2023/09/28 00:03:45;;;;;;;7.07;3.85;;;20.30;72.40;;;;;;5027478;28;20032;-65
2023/09/28 00:06:11;;;;;;;7.82;3.42;;;20.30;72.40;;;;;;5010706;28;20164;-65
2023/09/28 00:08:37;;;;;;;6.97;3.63;;;20.20;72.40;;;;;;5011140;28;20030;-65
2023/09/28 00:11:04;;;;;;;6.97;3.60;;;20.20;72.40;;;;;;5009967;28;20021;-65
2023/09/28 00:13:31;;;;;;;7.32;3.60;;;20.20;72.40;;;;;;5009754;28;20447;-65
2023/09/28 00:15:56;;;;;;;7.75;3.90;;;20.20;72.50;;;;;;5016168;28;20132;-65
2023/09/28 00:18:25;;;;;;;7.82;3.63;;;20.20;72.70;;;;;;5047184;28;20041;-65
2023/09/28 00:20:51;;;;;;;7.80;3.97;;;20.20;72.70;;;;;;5028987;28;20446;-65
2023/09/28 00:23:17;;;;;;;8.60;3.85;;;20.10;72.70;;;;;;5030042;28;20026;-65
2023/09/28 00:25:44;;;;;;;6.72;3.70;;;20.10;72.90;;;;;;5047070;28;20024;-65
2023/09/28 00:28:10;;;;;;;7.72;4.20;;;20.10;73.00;;;;;;5028661;28;20028;-65
2023/09/28 00:30:36;;;;;;;7.25;3.75;;;20.10;73.00;;;;;;5042769;28;20457;-65
2023/09/28 00:33:02;;;;;;;7.68;3.53;;;20.10;73.00;;;;;;5027693;28;20022;-65
2023/09/28 00:35:28;;;;;;;8.05;3.60;;;20.10;73.00;;;;;;5043773;28;20018;-65
2023/09/28 00:37:54;;;;;;;6.28;3.40;;;20.10;72.90;;;;;;5039168;28;20104;-65
2023/09/28 00:40:31;;;;;;;7.13;3.55;;;20.10;72.90;;;;;;5043445;28;20029;-65
2023/09/28 00:42:58;;;;;;;7.40;3.88;;;20.00;72.70;;;;;;5043467;28;20040;-65
2023/09/28 00:45:25;;;;;;;7.18;3.38;;;20.10;72.50;;;;;;5030877;28;20060;-65
2023/09/28 00:47:54;;;;;;;7.78;3.47;;;20.10;72.30;;;;;;5044832;28;20336;-65
2023/09/28 00:50:22;;;;;;;6.97;3.70;;;20.10;72.10;;;;;;5041769;28;20037;-65
2023/09/28 00:52:58;;;;;;;7.22;3.70;;;20.10;72.00;;;;;;5029977;28;20030;-65
2023/09/28 00:55:25;;;;;;;7.18;3.55;;;20.10;71.80;;;;;;5029591;28;20041;-65
2023/09/28 00:57:51;;;;;;;7.05;3.33;;;20.10;71.80;;;;;;5031297;28;20025;-65
2023/09/28 01:00:18;;;;;;;7.72;3.63;;;20.10;71.60;;;;;;5031696;28;20053;-65
2023/09/28 01:02:51;;;;;;;6.82;3.70;;;20.10;71.50;;;;;;5040477;28;20033;-65
2023/09/28 01:05:31;;;;;;;8.68;3.50;;;20.10;71.50;;;;;;5029042;28;20108;-66
2023/09/28 01:08:14;;;;;;;7.35;3.50;;;20.20;71.50;;;;;;5031115;28;20018;-65
2023/09/28 01:10:40;;;;;;;7.75;3.60;;;20.20;71.50;;;;;;5033883;28;20029;-65
2023/09/28 01:13:11;;;;;;;6.63;3.22;;;20.10;71.60;;;;;;5025886;28;20030;-65
2023/09/28 01:15:47;;;;;;;7.05;3.50;;;20.10;71.60;;;;;;5025090;28;20385;-65
2023/09/28 01:18:15;;;;;;;7.18;3.47;;;20.10;71.80;;;;;;5028001;28;20360;-65
2023/09/28 01:20:43;;;;;;;8.23;3.50;;;20.10;71.80;;;;;;5026987;28;20044;-65
2023/09/28 01:23:10;;;;;;;8.15;3.55;;;20.10;72.00;;;;;;5027915;28;20062;-65
2023/09/28 01:25:37;;;;;;;6.88;3.38;;;20.00;72.00;;;;;;5022867;28;20033;-65
2023/09/28 01:28:03;;;;;;;7.70;3.75;;;20.00;72.20;;;;;;5045634;28;20356;-65
2023/09/28 01:30:30;;;;;;;8.00;3.33;;;20.00;72.90;;;;;;5044923;28;20029;-65
2023/09/28 01:32:56;;;;;;;7.85;4.07;;;20.00;72.30;;;;;;5044974;28;20108;-65
2023/09/28 01:35:23;;;;;;;7.10;3.88;;;19.90;72.30;;;;;;5041461;28;20033;-65
2023/09/28 01:37:49;;;;;;;6.47;3.35;;;19.90;72.40;;;;;;5028475;28;20139;-65
2023/09/28 01:40:16;;;;;;;8.05;3.90;;;19.90;72.50;;;;;;5027188;28;20480;-65
2023/09/28 01:42:42;;;;;;;7.00;3.28;;;19.90;72.70;;;;;;5042594;28;20017;-65
2023/09/28 01:45:08;;;;;;;7.07;3.45;;;19.80;72.70;;;;;;5041803;28;20034;-65
2023/09/28 01:47:34;;;;;;;9.02;3.65;;;19.90;72.80;;;;;;5044362;28;20104;-65
2023/09/28 01:50:01;;;;;;;6.72;3.53;;;19.80;72.70;;;;;;5025746;28;20108;-65
2023/09/28 01:52:26;;;;;;;8.32;3.80;;;19.80;72.80;;;;;;5030298;28;20029;-65
2023/09/28 01:54:52;;;;;;;7.28;3.75;;;19.80;72.80;;;;;;5027711;28;20034;-65
2023/09/28 01:57:18;;;;;;;6.72;3.42;;;19.80;73.00;;;;;;5028312;28;20040;-65
2023/09/28 01:59:44;;;;;;;7.55;4.05;;;19.80;73.10;;;;;;5030124;28;20025;-65
2023/09/28 02:02:10;;;;;;;7.43;3.78;;;19.80;73.20;;;;;;5022280;28;20022;-65
2023/09/28 02:04:39;;;;;;;11.05;4.25;;;19.70;73.30;;;;;;5029480;28;20034;-65
2023/09/28 02:07:06;;;;;;;8.30;3.83;;;19.70;73.40;;;;;;5028219;28;20017;-65
2023/09/28 02:09:32;;;;;;;6.97;3.70;;;19.70;73.60;;;;;;5041161;28;20079;-65
2023/09/28 02:11:58;;;;;;;8.35;4.05;;;19.70;73.80;;;;;;5045190;28;20025;-65
2023/09/28 02:14:55;;;;;;;8.45;3.58;;;19.70;73.70;;;;;;5041776;28;20029;-65
2023/09/28 02:17:20;;;;;;;7.38;3.65;;;19.70;73.70;;;;;;5030449;28;20331;-66
2023/09/28 02:19:47;;;;;;;7.80;3.83;;;19.60;73.80;;;;;;5029157;28;20042;-66
2023/09/28 02:22:14;;;;;;;7.65;4.00;;;19.60;73.90;;;;;;5032561;28;20063;-65
2023/09/28 02:24:39;;;;;;;7.72;3.60;;;19.60;74.00;;;;;;5041494;28;20014;-66
2023/09/28 02:27:05;;;;;;;9.55;4.40;;;19.60;74.10;;;;;;5023732;28;20328;-64
2023/09/28 02:29:31;;;;;;;8.65;4.15;;;19.60;74.30;;;;;;5029610;28;20041;-65
2023/09/28 02:31:58;;;;;;;7.63;4.00;;;19.50;74.30;;;;;;5028398;28;20427;-65
2023/09/28 02:34:24;;;;;;;7.45;3.83;;;19.50;74.40;;;;;;5045618;28;20124;-65
2023/09/28 02:36:50;;;;;;;7.18;3.72;;;19.50;74.50;;;;;;5035637;28;20072;-66
2023/09/28 02:39:16;;;;;;;6.88;3.42;;;19.50;74.60;;;;;;5043216;28;20412;-65
2023/09/28 02:41:42;;;;;;;7.78;3.95;;;19.50;74.80;;;;;;5029361;28;20030;-65
2023/09/28 02:44:07;;;;;;;6.70;3.65;;;19.40;74.90;;;;;;5029644;28;20025;-65
2023/09/28 02:46:33;;;;;;;8.50;3.53;;;19.40;75.00;;;;;;5017682;28;20029;-65
2023/09/28 02:48:59;;;;;;;10.50;4.00;;;19.40;75.00;;;;;;5028717;28;20738;-65
2023/09/28 02:51:25;;;;;;;8.55;3.83;;;19.40;75.00;;;;;;5021013;28;20044;-66
2023/09/28 02:54:34;;;;;;;7.30;3.70;;;19.50;75.00;;;;;;5044211;28;20021;-65
2023/09/28 02:57:00;;;;;;;9.25;3.78;;;19.50;75.00;;;;;;5028272;28;20033;-65
2023/09/28 02:59:27;;;;;;;8.15;4.35;;;19.50;75.10;;;;;;5036396;28;20470;-65
2023/09/28 03:01:53;;;;;;;6.97;3.80;;;19.50;75.10;;;;;;5019923;28;20026;-65
2023/09/28 03:04:19;;;;;;;7.43;3.58;;;19.50;75.10;;;;;;5022831;28;20048;-65
2023/09/28 03:06:46;;;;;;;9.38;4.22;;;19.50;75.20;;;;;;5036121;28;20126;-65
2023/09/28 03:09:17;;;;;;;8.60;3.92;;;19.50;75.20;;;;;;5035591;28;20029;-65
2023/09/28 03:11:43;;;;;;;10.95;3.80;;;19.50;75.30;;;;;;5037085;28;20045;-66
2023/09/28 03:14:08;;;;;;;7.95;3.58;;;19.50;75.30;;;;;;5036768;28;20037;-65
2023/09/28 03:16:34;;;;;;;9.07;4.18;;;19.50;75.40;;;;;;5036361;28;20096;-65
2023/09/28 03:19:02;;;;;;;8.65;4.03;;;19.50;75.40;;;;;;5035527;28;20114;-65
2023/09/28 03:22:23;;;;;;;7.85;3.90;;;19.50;75.50;;;;;;5036338;28;20048;-65
2023/09/28 03:24:53;;;;;;;7.78;4.07;;;19.50;75.50;;;;;;5024426;28;20057;-65
2023/09/28 03:27:19;;;;;;;9.27;4.32;;;19.40;75.50;;;;;;5036050;28;20061;-65
2023/09/28 03:29:44;;;;;;;7.82;4.00;;;19.40;75.60;;;;;;5029165;28;20018;-65
2023/09/28 03:32:10;;;;;;;7.80;3.78;;;19.40;75.70;;;;;;5050152;28;20348;-65
2023/09/28 03:34:37;;;;;;;7.05;3.80;;;19.40;75.80;;;;;;5033921;28;20033;-65
2023/09/28 03:37:03;;;;;;;7.18;4.00;;;19.40;75.90;;;;;;5031657;28;20045;-65
2023/09/28 03:39:29;;;;;;;8.13;4.30;;;19.30;75.90;;;;;;5032776;28;20030;-66
2023/09/28 03:41:56;;;;;;;7.68;3.83;;;19.30;76.00;;;;;;5036392;28;20044;-65
2023/09/28 03:44:21;;;;;;;8.45;4.57;;;19.30;76.20;;;;;;5051375;28;20029;-65
2023/09/28 03:46:47;;;;;;;7.95;4.20;;;19.20;76.20;;;;;;5035675;28;20372;-65
2023/09/28 03:49:13;;;;;;;7.47;4.18;;;19.20;76.30;;;;;;5033761;28;20079;-66
2023/09/28 03:51:38;;;;;;;7.63;4.57;;;19.20;76.50;;;;;;5034107;28;20485;-66
2023/09/28 03:54:05;;;;;;;7.90;3.88;;;19.20;76.50;;;;;;5052163;28;20025;-65
2023/09/28 03:56:31;;;;;;;7.70;4.20;;;19.20;76.60;;;;;;5034655;28;20034;-65
2023/09/28 03:58:57;;;;;;;8.95;4.25;;;19.20;76.70;;;;;;5035674;28;20083;-65
2023/09/28 04:01:22;;;;;;;8.27;4.65;;;19.10;76.70;;;;;;5033895;28;20104;-66
2023/09/28 04:03:49;;;;;;;7.38;4.07;;;19.10;76.70;;;;;;5036372;28;20018;-66
2023/09/28 04:06:15;;;;;;;8.55;4.43;;;19.10;76.80;;;;;;5031645;28;20041;-65
2023/09/28 04:08:41;;;;;;;7.20;3.70;;;19.10;76.90;;;;;;5035789;28;20021;-66
2023/09/28 04:11:06;;;;;;;8.60;3.88;;;19.10;76.90;;;;;;5033559;28;20034;-65
2023/09/28 04:13:32;;;;;;;8.70;4.20;;;19.10;77.00;;;;;;5034833;28;20064;-65
2023/09/28 04:15:58;;;;;;;11.02;4.32;;;19.10;77.00;;;;;;5034172;28;20511;-65
2023/09/28 04:18:24;;;;;;;7.95;4.38;;;19.10;77.10;;;;;;5018163;28;20382;-65
2023/09/28 04:20:49;;;;;;;7.70;4.15;;;19.10;77.20;;;;;;5033172;28;20037;-66
2023/09/28 04:23:15;;;;;;;7.93;4.15;;;19.10;77.20;;;;;;5044849;28;20038;-65
2023/09/28 04:25:41;;;;;;;9.50;4.55;;;19.10;77.30;;;;;;5033049;28;20048;-65
2023/09/28 04:28:07;;;;;;;7.60;4.20;;;19.10;77.30;;;;;;5035421;28;20033;-65
2023/09/28 04:30:34;;;;;;;10.77;4.72;;;19.10;77.30;;;;;;5030896;28;20021;-65
2023/09/28 04:33:00;;;;;;;7.20;4.13;;;19.10;77.40;;;;;;5034215;28;20017;-65
2023/09/28 04:35:25;;;;;;;8.98;4.43;;;19.10;78.10;;;;;;5033701;28;20037;-66
2023/09/28 04:37:51;;;;;;;9.25;4.90;;;19.10;77.50;;;;;;5034910;28;20025;-66
2023/09/28 04:40:23;;;;;;;9.27;4.28;;;19.10;77.60;;;;;;5032611;28;20043;-65
2023/09/28 04:42:49;;;;;;;8.55;4.50;;;19.10;77.60;;;;;;5031826;28;20072;-65
2023/09/28 04:45:15;;;;;;;7.95;4.55;;;19.10;77.70;;;;;;5050586;28;20114;-65
2023/09/28 04:47:42;;;;;;;8.73;4.00;;;19.10;77.70;;;;;;5033650;28;20036;-65
2023/09/28 04:50:08;;;;;;;8.27;4.50;;;19.10;77.80;;;;;;5051200;28;20031;-65
2023/09/28 04:52:34;;;;;;;8.65;4.32;;;19.10;77.80;;;;;;5033141;28;20040;-65
2023/09/28 04:55:01;;;;;;;10.07;4.88;;;19.10;77.80;;;;;;5050905;28;20037;-65
2023/09/28 04:57:27;;;;;;;8.15;5.05;;;19.10;77.90;;;;;;5033719;28;20025;-65
2023/09/28 04:59:53;;;;;;;7.88;4.53;;;19.10;77.90;;;;;;5035298;28;20319;-65
2023/09/28 05:02:20;;;;;;;8.38;4.13;;;19.00;77.90;;;;;;5032793;28;20312;-66
2023/09/28 05:04:45;;;;;;;9.10;5.00;;;19.10;77.90;;;;;;5032917;28;20405;-65
2023/09/28 05:07:11;;;;;;;8.10;4.65;;;19.10;78.00;;;;;;5032694;28;20027;-65
2023/09/28 05:09:38;;;;;;;7.85;4.60;;;19.00;78.00;;;;;;5034466;28;20109;-65
2023/09/28 05:12:04;;;;;;;10.25;4.80;;;19.00;78.00;;;;;;5045866;28;20446;-65
2023/09/28 05:14:30;;;;;;;9.68;5.18;;;19.00;78.10;;;;;;5033650;28;20391;-65
2023/09/28 05:16:56;;;;;;;9.05;5.07;;;19.00;78.20;;;;;;5032181;28;20130;-64
2023/09/28 05:19:22;;;;;;;9.15;5.10;;;18.90;78.20;;;;;;5034549;28;20112;-64
2023/09/28 05:21:48;;;;;;;9.60;5.18;;;18.90;78.30;;;;;;5032482;28;20107;-65
2023/09/28 05:24:14;;;;;;;8.80;5.38;;;18.90;78.30;;;;;;5043737;28;20025;-64
2023/09/28 05:26:40;;;;;;;10.77;4.85;;;18.90;78.30;;;;;;5031339;28;20025;-64
2023/09/28 05:29:06;;;;;;;10.50;4.95;;;18.90;78.40;;;;;;5016703;28;20090;-65
2023/09/28 05:31:32;;;;;;;11.10;5.60;;;18.90;78.50;;;;;;5045990;28;20040;-65
2023/09/28 05:33:58;;;;;;;9.63;5.18;;;18.90;78.60;;;;;;5045490;28;20442;-65
2023/09/28 05:36:24;;;;;;;11.65;5.32;;;18.90;78.70;;;;;;5033591;28;20048;-65
2023/09/28 05:38:50;;;;;;;11.48;6.03;;;18.90;78.80;;;;;;5034399;28;20462;-64
2023/09/28 05:41:16;;;;;;;8.50;4.90;;;18.90;78.80;;;;;;5032806;28;20108;-65
2023/09/28 05:43:42;;;;;;;9.40;5.10;;;18.90;78.80;;;;;;5032798;28;20116;-65
2023/09/28 05:46:09;;;;;;;10.95;5.88;;;18.90;78.90;;;;;;5049985;28;20104;-64
2023/09/28 05:48:36;;;;;;;10.13;5.22;;;18.80;78.80;;;;;;5042192;28;20033;-65
2023/09/28 05:51:01;;;;;;;9.55;5.55;;;18.90;78.90;;;;;;5031814;28;20056;-66
2023/09/28 05:53:28;;;;;;;9.40;5.18;;;18.80;78.90;;;;;;5032535;28;20131;-66
2023/09/28 05:55:55;;;;;;;9.90;5.25;;;18.80;78.90;;;;;;5050084;28;20043;-67
2023/09/28 05:58:21;;;;;;;8.88;4.95;;;18.80;78.90;;;;;;5034513;28;20339;-67
2023/09/28 06:00:46;;;;;;;8.35;4.70;;;18.80;78.80;;;;;;5032950;28;20037;-66
2023/09/28 06:03:12;;;;;;;9.50;5.22;;;18.90;78.90;;;;;;5031371;28;20035;-66
2023/09/28 06:05:39;;;;;;;9.82;5.30;;;18.80;78.80;;;;;;5032188;28;20037;-66
2023/09/28 06:08:05;;;;;;;11.00;5.20;;;18.80;78.80;;;;;;5034445;28;20421;-66
2023/09/28 06:10:30;;;;;;;8.77;5.13;;;18.80;78.80;;;;;;5033149;28;20032;-66
2023/09/28 06:12:56;;;;;;;10.40;5.53;;;18.90;78.80;;;;;;5034249;28;20021;-66
2023/09/28 06:15:22;;;;;;;10.25;5.03;;;18.80;78.80;;;;;;5032841;28;20373;-66
2023/09/28 06:17:48;;;;;;;11.80;5.57;;;18.80;78.70;;;;;;5035986;28;20137;-65
2023/09/28 06:20:13;;;;;;;9.15;5.28;;;18.90;78.80;;;;;;5034018;28;20485;-65
2023/09/28 06:22:40;;;;;;;9.13;5.68;;;18.90;78.80;;;;;;5037823;28;20044;-65
2023/09/28 06:25:08;;;;;;;9.45;5.18;;;18.90;78.80;;;;;;5035572;28;20022;-65
2023/09/28 06:27:34;;;;;;;9.20;5.57;;;18.80;78.70;;;;;;5025039;28;20040;-65
2023/09/28 06:30:01;;;;;;;16.23;5.82;;;18.90;78.80;;;;;;5028599;28;20022;-65
2023/09/28 06:32:27;;;;;;;10.60;5.60;;;18.90;78.70;;;;;;5037206;28;20104;-65
2023/09/28 06:34:53;;;;;;;12.40;5.53;;;18.90;78.70;;;;;;5019639;28;20145;-66
2023/09/28 06:37:19;;;;;;;12.02;5.88;;;18.90;78.60;;;;;;5026942;28;20030;-66
2023/09/28 06:39:44;;;;;;;10.43;5.07;;;18.90;78.60;;;;;;5025072;28;20025;-65
2023/09/28 06:42:10;;;;;;;9.57;5.00;;;18.90;78.50;;;;;;5029994;28;20025;-68
2023/09/28 06:44:36;;;;;;;11.02;5.40;;;18.90;78.40;;;;;;5037007;28;20322;-65
2023/09/28 06:47:02;;;;;;;12.35;5.88;;;18.90;78.40;;;;;;5034750;28;20030;-65
2023/09/28 06:49:28;;;;;;;10.35;4.88;;;18.90;78.30;;;;;;5036177;28;20501;-66
2023/09/28 06:51:54;;;;;;;9.85;4.90;;;19.00;78.30;;;;;;5029365;28;20037;-66
2023/09/28 06:54:20;;;;;;;10.13;4.85;;;19.00;78.20;;;;;;5044849;28;20053;-66
2023/09/28 06:56:49;;;;;;;11.25;4.60;;;19.00;78.20;;;;;;5029013;28;20417;-66
2023/09/28 06:59:15;;;;;;;10.65;4.80;;;19.00;78.10;;;;;;5031086;28;20029;-65
2023/09/28 07:01:41;;;;;;;8.70;4.32;;;19.10;78.10;;;;;;5029088;28;20108;-65
2023/09/28 07:04:08;;;;;;;12.07;5.20;;;19.10;77.90;;;;;;5031726;28;20029;-65
2023/09/28 07:06:33;;;;;;;10.95;4.97;;;19.10;77.90;;;;;;5034224;28;20029;-65
2023/09/28 07:09:00;;;;;;;11.32;4.45;;;19.10;77.80;;;;;;5043382;28;20017;-65
2023/09/28 07:11:28;;;;;;;9.48;4.70;;;19.10;77.80;;;;;;5043340;28;20059;-65
2023/09/28 07:13:54;;;;;;;12.35;4.20;;;19.10;77.60;;;;;;5028624;28;20025;-65
2023/09/28 07:16:20;;;;;;;10.55;4.30;;;19.20;77.60;;;;;;5028208;28;20458;-65
2023/09/28 07:18:46;;;;;;;10.95;3.85;;;19.20;78.00;;;;;;5027043;28;20113;-65
2023/09/28 07:21:11;;;;;;;11.75;4.13;;;19.20;77.20;;;;;;5030030;28;20366;-65
2023/09/28 07:23:39;;;;;;;10.02;4.03;;;19.20;77.00;;;;;;5029389;28;20096;-65
2023/09/28 07:26:16;;;;;;;8.63;4.30;;;19.30;76.90;;;;;;5030089;28;20026;-65
2023/09/28 07:28:43;;;;;;;13.52;3.58;;;19.40;76.70;;;;;;5028999;28;20029;-64
2023/09/28 07:31:09;;;;;;;12.13;3.40;;;19.40;76.50;;;;;;5019795;28;20462;-64
2023/09/28 07:33:35;;;;;;;12.52;3.58;;;19.40;76.30;;;;;;5029152;28;20112;-64
2023/09/28 07:36:05;;;;;;;12.55;3.40;;;19.50;76.10;;;;;;5043592;28;20363;-65
2023/09/28 07:38:32;;;;;;;13.32;3.95;;;19.50;75.90;;;;;;5025824;28;20095;-65
2023/09/28 07:40:57;;;;;;;12.02;3.50;;;19.60;75.60;;;;;;5029283;28;20044;-65
2023/09/28 07:43:24;;;;;;;10.93;3.15;;;19.70;75.30;;;;;;5030978;28;20026;-65
2023/09/28 07:45:49;;;;;;;15.00;4.13;;;19.70;75.00;;;;;;5044453;28;20029;-65
2023/09/28 07:48:15;;;;;;;15.50;4.63;;;19.80;74.70;;;;;;5032301;28;20091;-65
2023/09/28 07:50:41;;;;;;;12.13;3.58;;;19.90;74.40;;;;;;5030521;28;20018;-70
2023/09/28 07:53:07;;;;;;;20.48;4.18;;;20.00;74.10;;;;;;5044872;28;20461;-65
2023/09/28 07:55:32;;;;;;;12.00;4.00;;;20.10;73.70;;;;;;5031137;28;20120;-66
2023/09/28 07:57:58;;;;;;;15.52;3.17;;;20.30;73.40;;;;;;5042661;28;20180;-66
2023/09/28 08:00:24;;;;;;;12.77;2.90;;;20.30;73.00;;;;;;5028334;28;20183;-66
2023/09/28 08:02:50;;;;;;;15.50;3.28;;;20.40;72.70;;;;;;5030536;28;20029;-66
2023/09/28 08:05:16;;;;;;;15.57;3.38;;;20.60;72.40;;;;;;5032119;28;20118;-66
2023/09/28 08:07:42;;;;;;;12.57;3.30;;;20.60;72.00;;;;;;5035709;28;20068;-66
2023/09/28 08:10:09;;;;;;;10.68;2.78;;;20.80;71.70;;;;;;5035747;28;20021;-66
2023/09/28 08:12:36;;;;;;;17.02;3.75;;;20.90;71.30;;;;;;5031842;28;20107;-64
2023/09/28 08:15:03;;;;;;;17.83;3.55;;;21.00;70.80;;;;;;5035006;28;20029;-68
2023/09/28 08:17:29;;;;;;;15.43;4.07;;;21.10;70.50;;;;;;5035084;28;20046;-65
2023/09/28 08:19:56;;;;;;;14.15;3.35;;;21.10;70.10;;;;;;5035091;28;20033;-65
2023/09/28 08:22:22;;;;;;;13.65;3.25;;;21.20;70.00;;;;;;5034878;28;20112;-65
2023/09/28 08:24:49;;;;;;;16.98;4.10;;;21.30;69.90;;;;;;5035405;28;20030;-66
2023/09/28 08:27:14;;;;;;;12.23;3.97;;;21.40;69.60;;;;;;5034657;28;20034;-67
2023/09/28 08:29:40;;;;;;;14.13;3.53;;;21.50;69.30;;;;;;5035641;28;20025;-66
2023/09/28 08:32:06;;;;;;;12.30;3.33;;;21.60;68.90;;;;;;5018552;28;20401;-66
2023/09/28 08:34:35;;;;;;;17.08;3.33;;;21.80;68.40;;;;;;5034444;28;20499;-66
2023/09/28 08:37:03;;;;;;;15.10;3.70;;;22.00;67.90;;;;;;5034949;28;20104;-66
2023/09/28 08:39:31;;;;;;;13.40;3.97;;;22.10;67.50;;;;;;5034938;28;20061;-66
2023/09/28 08:42:04;;;;;;;17.23;4.13;;;22.20;67.00;;;;;;5025729;28;20033;-66
2023/09/28 08:44:35;;;;;;;14.30;3.47;;;22.30;66.40;;;;;;5035886;28;20148;-67
2023/09/28 08:47:08;;;;;;;12.90;3.25;;;22.50;66.20;;;;;;5034650;28;20053;-66
2023/09/28 08:49:35;;;;;;;13.68;3.67;;;22.60;65.60;;;;;;5034905;28;20064;-66
2023/09/28 08:52:02;;;;;;;12.75;3.13;;;22.70;65.30;;;;;;5033998;28;20021;-66
2023/09/28 08:54:28;;;;;;;13.23;2.88;;;22.90;64.80;;;;;;5035190;28;20332;-66
2023/09/28 08:56:57;;;;;;;15.43;3.67;;;23.00;64.50;;;;;;5035948;28;20110;-66
2023/09/28 08:59:28;;;;;;;15.18;3.15;;;23.20;64.20;;;;;;5034938;28;20040;-66
2023/09/28 09:01:55;;;;;;;14.75;3.47;;;23.20;63.70;;;;;;5022138;28;20384;-66
2023/09/28 09:04:20;;;;;;;13.90;3.10;;;23.00;63.80;;;;;;5035648;28;20022;-66
2023/09/28 09:06:47;;;;;;;14.95;3.33;;;22.80;63.90;;;;;;5035716;28;20343;-66
2023/09/28 09:09:16;;;;;;;13.05;3.83;;;22.70;63.90;;;;;;5033484;28;20017;-66
2023/09/28 09:11:52;;;;;;;18.58;3.60;;;22.60;64.10;;;;;;5035348;28;20026;-66
2023/09/28 09:14:19;;;;;;;15.07;3.03;;;22.50;64.90;;;;;;5034475;28;20051;-66
2023/09/28 09:16:45;;;;;;;14.07;3.35;;;22.40;64.30;;;;;;5050531;28;20060;-66
2023/09/28 09:19:14;;;;;;;14.90;3.20;;;22.30;64.40;;;;;;5049992;28;20454;-66
2023/09/28 09:21:43;;;;;;;14.75;3.70;;;22.20;64.20;;;;;;5035293;28;20029;-66
2023/09/28 09:24:12;;;;;;;16.38;3.88;;;22.10;64.30;;;;;;5034952;28;20439;-66
2023/09/28 09:26:46;;;;;;;14.32;3.72;;;22.00;64.00;;;;;;5034545;28;20442;-66
2023/09/28 09:29:13;;;;;;;12.95;3.58;;;21.90;64.00;;;;;;5012961;28;20334;-66
2023/09/28 09:31:41;;;;;;;14.23;3.53;;;21.90;64.00;;;;;;5033225;28;20439;-66
2023/09/28 09:34:25;;;;;;;16.55;3.70;;;21.90;64.00;;;;;;5033798;28;20056;-66
2023/09/28 09:36:58;;;;;;;13.50;3.85;;;22.00;63.70;;;;;;5033971;28;20059;-66
2023/09/28 09:39:32;;;;;;;16.80;3.50;;;22.10;63.60;;;;;;5033033;28;20044;-66
2023/09/28 09:41:58;;;;;;;12.70;2.92;;;22.30;63.20;;;;;;5033513;28;20038;-66
2023/09/28 09:44:26;;;;;;;15.45;3.33;;;22.30;63.10;;;;;;5033865;28;20399;-66
2023/09/28 09:46:53;;;;;;;15.57;3.40;;;22.30;63.00;;;;;;5034518;28;20351;-66
2023/09/28 09:49:19;;;;;;;17.02;4.03;;;22.30;63.00;;;;;;5033632;28;20128;-66
2023/09/28 09:51:48;;;;;;;13.38;3.72;;;22.30;63.00;;;;;;5049729;28;20033;-66
2023/09/28 09:54:19;;;;;;;15.68;3.95;;;22.40;62.90;;;;;;5034519;28;20315;-66
2023/09/28 09:56:49;;;;;;;12.57;3.47;;;22.40;62.80;;;;;;5033666;28;20037;-66
2023/09/28 09:59:20;;;;;;;13.05;3.80;;;22.40;62.60;;;;;;5033771;28;20040;-66
2023/09/28 10:01:53;;;;;;;15.02;3.40;;;22.50;62.30;;;;;;5033632;28;20071;-66
2023/09/28 10:04:21;;;;;;;16.15;3.95;;;22.50;62.10;;;;;;5034829;28;20494;-66
2023/09/28 10:06:52;;;;;;;12.18;3.08;;;22.70;61.90;;;;;;5016880;28;20074;-66
2023/09/28 10:09:20;;;;;;;14.05;3.53;;;22.80;61.60;;;;;;5030942;28;20018;-66
2023/09/28 10:11:52;;;;;;;13.93;3.45;;;23.00;61.30;;;;;;5029158;28;20477;-67
2023/09/28 10:14:21;;;;;;;13.77;3.67;;;23.10;61.10;;;;;;5019907;28;20033;-68
2023/09/28 10:16:51;;;;;;;14.50;3.30;;;23.20;60.90;;;;;;5033152;28;20386;-67
2023/09/28 10:19:20;;;;;;;16.10;3.55;;;23.30;60.70;;;;;;5033573;28;20029;-66
2023/09/28 10:21:46;;;;;;;11.43;2.97;;;23.50;60.50;;;;;;5030356;28;20040;-67
2023/09/28 10:24:17;;;;;;;13.10;3.00;;;23.60;60.20;;;;;;5046169;28;20022;-67
2023/09/28 10:26:50;;;;;;;12.43;3.83;;;23.60;60.00;;;;;;5023963;28;20331;-67
2023/09/28 10:29:28;;;;;;;14.15;3.05;;;23.50;59.80;;;;;;5019644;28;20027;-67
2023/09/28 10:31:55;;;;;;;13.82;3.08;;;23.60;59.90;;;;;;5033402;28;20029;-67
2023/09/28 10:34:22;;;;;;;12.80;3.35;;;23.60;60.00;;;;;;5032234;28;20037;-67
2023/09/28 10:37:18;;;;;;;15.07;3.42;;;23.70;59.80;;;;;;5032413;28;20032;-67
2023/09/28 10:39:50;;;;;;;16.75;3.42;;;23.70;59.60;;;;;;5028663;28;20037;-67
2023/09/28 10:42:16;;;;;;;12.20;3.13;;;23.70;59.50;;;;;;5030672;28;20079;-67
2023/09/28 10:44:48;;;;;;;15.02;3.72;;;23.60;59.70;;;;;;5046670;28;20090;-67
2023/09/28 10:47:14;;;;;;;16.17;3.53;;;23.70;59.60;;;;;;5039424;28;20039;-67
2023/09/28 10:49:40;;;;;;;11.57;3.00;;;23.80;59.60;;;;;;5042388;28;20346;-67
2023/09/28 10:52:09;;;;;;;11.98;3.40;;;23.90;59.50;;;;;;5029055;28;20044;-67
2023/09/28 10:54:36;;;;;;;10.50;3.17;;;24.00;59.30;;;;;;5032393;28;20037;-67
2023/09/28 10:57:02;;;;;;;15.27;4.15;;;24.10;59.10;;;;;;5028255;28;20029;-67
2023/09/28 10:59:28;;;;;;;16.58;4.32;;;24.20;58.90;;;;;;5027809;28;20044;-67
2023/09/28 11:01:54;;;;;;;10.80;2.60;;;24.20;59.00;;;;;;5028280;28;20026;-68
2023/09/28 11:04:20;;;;;;;10.77;2.85;;;24.20;58.90;;;;;;5044627;28;20737;-67
2023/09/28 11:06:46;;;;;;;11.32;2.97;;;24.20;58.90;;;;;;5028357;28;20029;-66
2023/09/28 11:09:14;;;;;;;12.45;2.70;;;24.10;58.90;;;;;;5028373;28;20044;-67
2023/09/28 11:11:43;;;;;;;12.05;2.83;;;24.00;58.90;;;;;;5027715;28;20443;-67
2023/09/28 11:14:10;;;;;;;13.38;3.53;;;23.90;59.70;;;;;;5039608;28;20529;-67
2023/09/28 11:16:41;;;;;;;12.75;2.67;;;23.90;59.20;;;;;;5031183;28;20048;-67
2023/09/28 11:19:10;;;;;;;12.85;3.42;;;23.90;59.10;;;;;;5036262;28;20025;-67
2023/09/28 11:21:37;;;;;;;14.27;4.50;;;23.90;58.90;;;;;;5046357;28;20395;-67
2023/09/28 11:24:03;;;;;;;15.43;4.20;;;23.80;58.90;;;;;;5032029;28;20026;-67
2023/09/28 11:26:30;;;;;;;14.60;3.20;;;23.80;59.00;;;;;;5035030;28;20017;-67
2023/09/28 11:28:57;;;;;;;13.80;3.70;;;23.70;59.10;;;;;;5032849;28;20117;-68
2023/09/28 11:31:23;;;;;;;12.48;3.28;;;23.70;59.20;;;;;;5034151;28;20029;-68
2023/09/28 11:33:49;;;;;;;10.52;3.03;;;23.60;59.30;;;;;;5035804;28;20052;-67
2023/09/28 11:36:22;;;;;;;17.13;4.43;;;23.50;59.50;;;;;;5034699;28;20076;-68
2023/09/28 11:38:49;;;;;;;13.02;3.45;;;23.40;59.40;;;;;;5035141;28;20033;-67
2023/09/28 11:41:16;;;;;;;13.85;3.28;;;23.20;59.60;;;;;;5033336;28;20029;-67
2023/09/28 11:43:53;;;;;;;12.52;2.60;;;23.10;59.80;;;;;;5029650;28;20379;-67
2023/09/28 11:46:25;;;;;;;15.07;3.38;;;23.00;60.00;;;;;;5035623;28;20059;-67
2023/09/28 11:49:10;;;;;;;13.27;3.90;;;22.80;60.40;;;;;;5048974;28;20049;-67
2023/09/28 11:51:37;;;;;;;16.77;3.92;;;22.80;60.70;;;;;;5039589;28;20029;-67
2023/09/28 11:54:07;;;;;;;14.82;3.28;;;22.70;60.80;;;;;;5042209;28;20043;-67
2023/09/28 11:56:33;;;;;;;12.80;2.97;;;22.70;61.10;;;;;;5042329;28;20334;-67
2023/09/28 11:58:59;;;;;;;13.93;2.97;;;22.60;61.40;;;;;;5037296;28;20037;-66
2023/09/28 12:01:25;;;;;;;11.18;3.70;;;22.60;61.50;;;;;;5037808;28;20053;-66
2023/09/28 12:03:51;;;;;;;14.48;4.20;;;22.60;61.40;;;;;;5033644;28;20454;-66
2023/09/28 12:06:20;;;;;;;13.05;3.25;;;22.60;61.30;;;;;;5052632;28;20060;-66
2023/09/28 12:08:46;;;;;;;13.65;2.97;;;22.60;61.20;;;;;;5049454;28;20025;-66
2023/09/28 12:11:12;;;;;;;12.02;3.33;;;22.60;61.20;;;;;;5043373;28;20127;-67
2023/09/28 12:13:38;;;;;;;12.25;3.70;;;22.60;61.40;;;;;;5039941;28;20053;-66
2023/09/28 12:16:05;;;;;;;14.40;3.50;;;22.50;61.60;;;;;;5036036;28;20455;-66
2023/09/28 12:18:32;;;;;;;13.07;3.83;;;22.40;62.50;;;;;;5052344;28;20486;-66
2023/09/28 12:20:58;;;;;;;11.65;3.00;;;22.40;62.10;;;;;;5035705;28;20029;-66
2023/09/28 12:23:25;;;;;;;11.70;3.17;;;22.40;62.10;;;;;;5036565;28;20435;-66
2023/09/28 12:25:51;;;;;;;15.07;3.90;;;22.40;62.00;;;;;;5033774;28;20441;-67
2023/09/28 12:28:17;;;;;;;14.50;3.13;;;22.40;62.00;;;;;;5036726;28;20441;-66
2023/09/28 12:30:43;;;;;;;12.07;4.00;;;22.30;61.90;;;;;;5035455;28;20343;-66
2023/09/28 12:33:10;;;;;;;15.27;3.50;;;22.30;62.00;;;;;;5036570;28;20032;-66
2023/09/28 12:35:38;;;;;;;12.55;3.03;;;22.30;62.00;;;;;;5034686;28;20033;-66
2023/09/28 12:38:04;;;;;;;13.70;2.72;;;22.30;62.20;;;;;;5036330;28;20030;-66
2023/09/28 12:40:35;;;;;;;11.93;3.15;;;22.30;62.30;;;;;;5036066;28;20033;-66
2023/09/28 12:43:05;;;;;;;10.82;2.78;;;22.30;62.40;;;;;;5034720;28;20123;-66